Time;durP1;ratioP1;P1;durP2;ratioP2;P2;SDS_P1;SDS_P2;PMS_P1;PMS_P2;Temp;Humidity;BMP_temperature;BMP_pressure;BME280_temperature;BME280_humidity;BME280_pressure;Samples;Min_cycle;Max_cycle;Signal;HPM_P1;HPM_P2
2023/04/29 00:00:36;;;;;;;60.37;27.00;;;;;;;8.90;100.00;101321.22;5080063;28;20119;-81
2023/04/29 00:03:02;;;;;;;61.23;26.73;;;;;;;8.85;100.00;101319.09;5063133;28;20035;-81
2023/04/29 00:05:27;;;;;;;60.70;27.07;;;;;;;8.83;100.00;101312.22;5096595;28;20030;-81
2023/04/29 00:07:52;;;;;;;57.00;25.63;;;;;;;8.82;100.00;101315.97;5096335;28;20045;-81
2023/04/29 00:10:18;;;;;;;58.85;26.02;;;;;;;8.80;100.00;101335.09;5079639;28;20028;-81
2023/04/29 00:12:43;;;;;;;63.57;26.47;;;;;;;8.78;100.00;101319.06;5114352;28;20027;-81
2023/04/29 00:15:09;;;;;;;56.00;25.33;;;;;;;8.77;100.00;101320.06;5096400;28;20387;-81
2023/04/29 00:17:35;;;;;;;63.83;26.92;;;;;;;8.78;100.00;101321.75;5079051;28;20056;-81
2023/04/29 00:20:01;;;;;;;59.95;26.85;;;;;;;8.80;100.00;101318.88;5079698;28;20044;-81
2023/04/29 00:22:27;;;;;;;57.15;25.48;;;;;;;8.78;100.00;101318.19;5096548;28;20043;-80
2023/04/29 00:24:52;;;;;;;52.17;24.63;;;;;;;8.78;100.00;101327.16;5096145;28;20088;-81
2023/04/29 00:27:17;;;;;;;52.30;23.70;;;;;;;8.76;100.00;101322.97;5079190;28;20089;-81
2023/04/29 00:29:43;;;;;;;55.30;25.40;;;;;;;8.77;100.00;101324.66;5080069;28;20381;-81
2023/04/29 00:32:09;;;;;;;50.37;24.83;;;;;;;8.75;100.00;101329.41;5096935;28;20058;-80
2023/04/29 00:34:34;;;;;;;51.72;24.95;;;;;;;8.74;100.00;101338.53;5114493;28;20063;-81
2023/04/29 00:37:00;;;;;;;50.00;23.83;;;;;;;8.70;100.00;101335.41;5095933;28;20035;-81
2023/04/29 00:39:25;;;;;;;53.23;24.70;;;;;;;8.67;100.00;101335.78;5096293;28;20071;-81
2023/04/29 00:41:51;;;;;;;43.78;22.88;;;;;;;8.66;100.00;101338.69;5096206;28;20037;-81
2023/04/29 00:44:16;;;;;;;42.40;22.17;;;;;;;8.64;100.00;101340.75;5095800;28;20059;-81
2023/04/29 00:46:42;;;;;;;43.63;22.67;;;;;;;8.59;100.00;101347.56;5096889;28;20032;-81
2023/04/29 00:49:08;;;;;;;42.25;21.38;;;;;;;8.57;100.00;101341.47;5095955;28;20384;-81
2023/04/29 00:51:35;;;;;;;36.90;21.80;;;;;;;8.53;100.00;101342.91;5114192;28;20072;-81
2023/04/29 00:54:02;;;;;;;37.13;20.92;;;;;;;8.51;100.00;101341.41;5114453;28;20024;-81
2023/04/29 00:56:32;;;;;;;39.80;20.55;;;;;;;8.49;100.00;101352.44;5079834;28;20038;-81
2023/04/29 00:58:58;;;;;;;34.50;19.02;;;;;;;8.51;100.00;101342.25;5114287;28;20063;-81
2023/04/29 01:01:24;;;;;;;36.85;19.50;;;;;;;8.48;100.00;101347.22;5079024;28;20031;-81
2023/04/29 01:03:50;;;;;;;34.53;19.07;;;;;;;8.48;100.00;101352.63;5078650;28;20395;-81
2023/04/29 01:06:19;;;;;;;32.37;17.93;;;;;;;8.44;100.00;101352.13;5079236;28;20035;-81
2023/04/29 01:08:47;;;;;;;35.03;19.92;;;;;;;8.43;100.00;101364.81;5114082;28;20046;-81
2023/04/29 01:11:22;;;;;;;35.90;19.65;;;;;;;8.43;100.00;101358.56;5095769;28;20091;-81
2023/04/29 01:14:03;;;;;;;32.20;19.60;;;;;;;8.45;100.00;101355.69;5114041;28;20067;-81
2023/04/29 01:16:31;;;;;;;36.85;20.48;;;;;;;8.42;100.00;101356.88;5114327;28;20028;-81
2023/04/29 01:19:01;;;;;;;34.58;19.33;;;;;;;8.39;100.00;101363.50;5113908;28;20082;-81
2023/04/29 01:21:27;;;;;;;34.72;20.38;;;;;;;8.40;100.00;101372.44;5079346;28;20032;-81
2023/04/29 01:23:55;;;;;;;35.47;20.17;;;;;;;8.37;100.00;101378.22;5095531;28;20490;-81
2023/04/29 01:26:24;;;;;;;35.65;20.45;;;;;;;8.36;100.00;101382.81;5079223;28;20494;-81
2023/04/29 01:28:55;;;;;;;40.55;20.27;;;;;;;8.36;100.00;101376.56;5113844;28;20122;-81
2023/04/29 01:31:44;;;;;;;37.08;21.42;;;;;;;8.34;100.00;101381.31;5096210;28;20032;-81
2023/04/29 01:34:13;;;;;;;38.13;21.20;;;;;;;8.33;100.00;101383.19;5095647;28;20028;-81
2023/04/29 01:37:03;;;;;;;43.47;22.03;;;;;;;8.35;100.00;101380.28;5113761;28;20109;-80
2023/04/29 01:39:54;;;;;;;40.78;21.30;;;;;;;8.37;100.00;101383.63;5097463;28;20047;-81
2023/04/29 01:42:31;;;;;;;41.47;20.65;;;;;;;8.37;100.00;101387.19;5117721;28;20028;-81
2023/04/29 01:45:00;;;;;;;43.72;22.10;;;;;;;8.37;100.00;101379.09;5118505;28;20062;-81
2023/04/29 01:47:31;;;;;;;43.15;22.42;;;;;;;8.37;100.00;101380.94;5099299;28;20031;-81
2023/04/29 01:49:56;;;;;;;42.90;22.67;;;;;;;8.36;100.00;101382.81;5117554;28;20028;-81
2023/04/29 01:52:22;;;;;;;46.20;22.92;;;;;;;8.37;100.00;101387.19;5082762;28;20077;-81
2023/04/29 01:54:47;;;;;;;48.72;22.52;;;;;;;8.37;100.00;101389.03;5099343;28;20028;-81
2023/04/29 01:57:13;;;;;;;50.67;24.17;;;;;;;8.38;100.00;101388.84;5065671;28;20039;-81
2023/04/29 01:59:39;;;;;;;51.22;24.42;;;;;;;8.39;100.00;101392.41;5099169;28;20085;-81
2023/04/29 02:02:04;;;;;;;47.90;24.47;;;;;;;8.34;100.00;101384.88;5099090;28;20045;-81
2023/04/29 02:04:32;;;;;;;49.60;23.93;;;;;;;8.35;100.00;101391.94;5099105;28;20037;-81
2023/04/29 02:06:58;;;;;;;47.33;23.88;;;;;;;8.35;100.00;101394.63;5082103;28;20035;-81
2023/04/29 02:09:23;;;;;;;47.45;23.77;;;;;;;8.35;100.00;101393.81;5082280;28;20032;-82
2023/04/29 02:11:48;;;;;;;49.77;24.80;;;;;;;8.33;100.00;101396.69;5081711;28;20460;-81
2023/04/29 02:14:14;;;;;;;59.13;25.33;;;;;;;8.34;100.00;101401.09;5081852;28;20100;-81
2023/04/29 02:16:39;;;;;;;53.90;25.10;;;;;;;8.37;100.00;101403.41;5098775;28;20375;-81
2023/04/29 02:19:05;;;;;;;46.57;23.83;;;;;;;8.38;100.00;101407.78;5098538;28;20059;-81
2023/04/29 02:21:30;;;;;;;53.25;25.65;;;;;;;8.38;100.00;101413.19;5065335;28;20464;-81
2023/04/29 02:23:56;;;;;;;48.25;23.85;;;;;;;8.39;100.00;101412.16;5098495;28;20019;-81
2023/04/29 02:26:22;;;;;;;52.85;25.08;;;;;;;8.41;100.00;101415.53;5081679;28;20030;-81
2023/04/29 02:28:48;;;;;;;53.43;25.33;;;;;;;8.40;100.00;101413.84;5082206;28;20050;-81
2023/04/29 02:31:13;;;;;;;57.78;26.27;;;;;;;8.41;100.00;101425.50;5098850;28;20472;-81
2023/04/29 02:33:38;;;;;;;53.47;25.87;;;;;;;8.37;100.00;101422.34;5098203;28;20531;-81
2023/04/29 02:36:04;;;;;;;56.77;25.00;;;;;;;8.40;100.00;101434.63;5116632;28;20032;-81
2023/04/29 02:38:30;;;;;;;52.97;25.63;;;;;;;8.40;100.00;101430.06;5098345;28;20123;-82
2023/04/29 02:40:55;;;;;;;56.85;26.50;;;;;;;8.40;100.00;101430.06;5116529;28;20471;-81
2023/04/29 02:43:21;;;;;;;64.53;28.27;;;;;;;8.35;100.00;101434.38;5098781;28;20043;-81
2023/04/29 02:45:46;;;;;;;59.73;26.70;;;;;;;8.29;100.00;101444.06;5098705;28;20027;-81
2023/04/29 02:48:11;;;;;;;60.70;28.17;;;;;;;8.26;100.00;101453.38;5116699;28;20066;-81
2023/04/29 02:50:37;;;;;;;59.78;27.08;;;;;;;8.25;100.00;101448.16;5080931;28;20039;-82
2023/04/29 02:53:02;;;;;;;62.30;28.37;;;;;;;8.22;100.00;101453.94;5098852;28;20070;-81
2023/04/29 02:55:28;;;;;;;64.10;26.57;;;;;;;8.20;100.00;101446.00;5064271;28;20059;-81
2023/04/29 02:57:53;;;;;;;62.80;27.27;;;;;;;8.19;100.00;101457.84;5081886;28;20024;-81
2023/04/29 03:00:19;;;;;;;54.93;26.17;;;;;;;8.20;100.00;101453.28;5081122;28;20077;-81
2023/04/29 03:02:44;;;;;;;56.90;25.65;;;;;;;8.19;100.00;101467.81;5081351;28;20110;-81
2023/04/29 03:05:10;;;;;;;60.27;26.20;;;;;;;8.19;100.00;101460.56;5098189;28;20123;-81
2023/04/29 03:07:35;;;;;;;64.88;27.23;;;;;;;8.16;100.00;101455.50;5116052;28;20028;-81
2023/04/29 03:10:01;;;;;;;58.83;27.43;;;;;;;8.16;100.00;101462.78;5098127;28;20487;-81
2023/04/29 03:12:26;;;;;;;57.00;26.13;;;;;;;8.20;100.00;101456.00;5080718;28;20087;-81
2023/04/29 03:14:52;;;;;;;62.37;25.87;;;;;;;8.20;100.00;101456.00;5081512;28;20364;-81
2023/04/29 03:17:17;;;;;;;65.05;25.30;;;;;;;8.21;100.00;101469.31;5098125;28;20034;-81
2023/04/29 03:19:43;;;;;;;62.53;26.53;;;;;;;8.20;100.00;101459.53;5080994;28;20055;-81
2023/04/29 03:22:10;;;;;;;63.37;27.20;;;;;;;8.18;100.00;101463.41;5080612;28;20043;-81
2023/04/29 03:24:36;;;;;;;67.72;26.70;;;;;;;8.16;100.00;101462.78;5097360;28;20027;-81
2023/04/29 03:27:01;;;;;;;65.67;26.93;;;;;;;8.15;100.00;101467.34;5097923;28;20463;-81
2023/04/29 03:29:27;;;;;;;68.10;27.27;;;;;;;8.15;100.00;101467.34;5097345;28;20032;-81
2023/04/29 03:31:53;;;;;;;64.23;26.87;;;;;;;8.14;100.00;101471.06;5080613;28;20097;-82
2023/04/29 03:34:19;;;;;;;67.30;26.42;;;;;;;8.17;100.00;101483.38;5080241;28;20038;-81
2023/04/29 03:36:44;;;;;;;74.00;28.50;;;;;;;8.14;100.00;101475.66;5115756;28;20024;-81
2023/04/29 03:39:11;;;;;;;64.60;27.95;;;;;;;8.13;100.00;101479.38;5080714;28;20459;-81
2023/04/29 03:41:37;;;;;;;64.25;26.75;;;;;;;8.15;100.00;101480.88;5080386;28;20035;-82
2023/04/29 03:44:02;;;;;;;58.58;26.83;;;;;;;8.17;100.00;101484.22;5097015;28;20399;-81
2023/04/29 03:46:28;;;;;;;66.03;26.73;;;;;;;8.16;100.00;101484.41;5096978;28;20032;-81
2023/04/29 03:48:54;;;;;;;61.47;26.02;;;;;;;8.15;100.00;101482.72;5115263;28;20027;-81
2023/04/29 03:51:22;;;;;;;61.28;26.85;;;;;;;8.15;100.00;101486.28;5096813;28;20436;-81
2023/04/29 03:53:47;;;;;;;66.18;25.90;;;;;;;8.21;100.00;101493.66;5079910;28;20157;-81
2023/04/29 03:56:13;;;;;;;64.60;26.55;;;;;;;8.23;100.00;101488.06;5063348;28;20122;-81
2023/04/29 03:58:38;;;;;;;55.43;24.70;;;;;;;8.23;100.00;101488.06;5080435;28;20457;-81
2023/04/29 04:01:03;;;;;;;61.83;26.33;;;;;;;8.24;100.00;101489.75;5079467;28;20096;-81
2023/04/29 04:03:29;;;;;;;58.90;24.83;;;;;;;8.24;100.00;101487.88;5096787;28;20060;-81
2023/04/29 04:05:54;;;;;;;66.85;26.60;;;;;;;8.25;100.00;101494.09;5096690;28;20031;-81
2023/04/29 04:08:20;;;;;;;57.40;24.43;;;;;;;8.25;100.00;101499.50;5096763;28;20106;-81
2023/04/29 04:10:45;;;;;;;52.13;24.13;;;;;;;8.23;100.00;101504.28;5096993;28;20165;-81
2023/04/29 04:13:11;;;;;;;64.90;23.97;;;;;;;8.25;100.00;101500.38;5079257;28;20073;-82
2023/04/29 04:15:37;;;;;;;58.28;23.25;;;;;;;8.26;100.00;101506.59;5079517;28;20122;-81
2023/04/29 04:18:02;;;;;;;52.27;24.87;;;;;;;8.28;100.00;101507.25;5096474;28;20539;-81
2023/04/29 04:20:27;;;;;;;48.45;22.33;;;;;;;8.31;100.00;101506.06;5096700;28;20026;-81
2023/04/29 04:22:53;;;;;;;51.93;23.43;;;;;;;8.33;100.00;101517.53;5079754;28;20031;-81
2023/04/29 04:25:19;;;;;;;46.17;22.30;;;;;;;8.33;100.00;101518.38;5114889;28;20028;-81
2023/04/29 04:27:44;;;;;;;46.05;21.98;;;;;;;8.33;100.00;101518.38;5079611;28;20064;-81
2023/04/29 04:30:10;;;;;;;50.00;22.17;;;;;;;8.35;100.00;101515.47;5096254;28;20047;-81
2023/04/29 04:32:36;;;;;;;45.30;22.42;;;;;;;8.34;100.00;101517.34;5095865;28;20038;-81
2023/04/29 04:35:02;;;;;;;52.35;23.33;;;;;;;8.33;100.00;101518.38;5096940;28;20031;-81
2023/04/29 04:37:27;;;;;;;45.38;21.95;;;;;;;8.33;100.00;101526.47;5114928;28;20119;-81
2023/04/29 04:39:52;;;;;;;46.73;22.33;;;;;;;8.31;100.00;101523.13;5096309;28;20040;-81
2023/04/29 04:42:18;;;;;;;52.20;21.97;;;;;;;8.34;100.00;101532.72;5080241;28;20038;-81
2023/04/29 04:44:43;;;;;;;50.67;23.03;;;;;;;8.37;100.00;101538.63;5096149;28;20531;-81
2023/04/29 04:47:10;;;;;;;44.63;20.95;;;;;;;8.39;100.00;101541.13;5096616;28;20376;-81
2023/04/29 04:49:35;;;;;;;44.23;21.30;;;;;;;8.39;100.00;101547.38;5063073;28;20486;-81
2023/04/29 04:52:01;;;;;;;41.90;21.00;;;;;;;8.39;100.00;101557.34;5113966;28;20039;-81
2023/04/29 04:54:26;;;;;;;46.40;21.67;;;;;;;8.38;100.00;101555.66;5079493;28;20028;-81
2023/04/29 04:56:52;;;;;;;42.67;20.60;;;;;;;8.37;100.00;101560.25;5096629;28;20031;-81
2023/04/29 04:59:17;;;;;;;43.60;20.60;;;;;;;8.40;100.00;101567.13;5062356;28;20031;-81
2023/04/29 05:01:43;;;;;;;42.17;21.13;;;;;;;8.42;100.00;101562.41;5078982;28;20031;-81
2023/04/29 05:04:08;;;;;;;41.08;19.67;;;;;;;8.41;100.00;101563.41;5114377;28;20636;-81
2023/04/29 05:06:34;;;;;;;36.80;20.63;;;;;;;8.43;100.00;101564.91;5062667;28;20035;-81
2023/04/29 05:08:59;;;;;;;42.13;21.20;;;;;;;8.43;100.00;101574.91;5079013;28;20527;-81
2023/04/29 05:11:25;;;;;;;42.03;20.43;;;;;;;8.41;100.00;101580.50;5079814;28;20096;-81
2023/04/29 05:13:50;;;;;;;41.53;21.17;;;;;;;8.42;100.00;101574.03;5116864;28;20036;-81
2023/04/29 05:16:16;;;;;;;39.83;20.60;;;;;;;8.41;100.00;101575.09;5118227;28;20027;-81
2023/04/29 05:18:44;;;;;;;40.17;20.60;;;;;;;8.41;100.00;101579.63;5118069;28;20548;-81
2023/04/29 05:21:10;;;;;;;41.78;21.17;;;;;;;8.43;100.00;101574.91;5099837;28;20067;-81
2023/04/29 05:23:35;;;;;;;44.63;19.98;;;;;;;8.47;100.00;101580.81;5099857;28;20066;-81
2023/04/29 05:26:01;;;;;;;38.07;19.67;;;;;;;8.50;100.00;101583.13;5099932;28;20128;-81
2023/04/29 05:28:26;;;;;;;40.27;19.77;;;;;;;8.50;100.00;101586.69;5100215;28;20024;-81
2023/04/29 05:30:52;;;;;;;37.97;20.37;;;;;;;8.49;100.00;101589.56;5099619;28;20427;-82
2023/04/29 05:33:18;;;;;;;40.65;20.10;;;;;;;8.49;100.00;101594.97;5082644;28;20372;-81
2023/04/29 05:35:43;;;;;;;38.75;20.40;;;;;;;8.49;100.00;101589.56;5099447;28;20115;-82
2023/04/29 05:38:09;;;;;;;36.17;18.45;;;;;;;8.49;100.00;101593.13;5099874;28;20062;-82
2023/04/29 05:40:35;;;;;;;39.85;18.75;;;;;;;8.47;100.00;101600.56;5082555;28;20024;-82
2023/04/29 05:43:01;;;;;;;37.38;19.73;;;;;;;8.48;100.00;101609.53;5099256;28;20028;-83
2023/04/29 05:45:27;;;;;;;36.42;18.70;;;;;;;8.53;100.00;101617.94;5099518;28;20054;-82
2023/04/29 05:47:52;;;;;;;36.23;18.73;;;;;;;8.59;100.00;101617.19;5099275;28;20459;-82
2023/04/29 05:50:18;;;;;;;36.50;19.07;;;;;;;8.65;100.00;101608.38;5082343;28;20479;-82
2023/04/29 05:52:43;;;;;;;37.47;18.73;;;;;;;8.68;100.00;101620.66;5082601;28;20039;-83
2023/04/29 05:55:09;;;;;;;41.78;19.13;;;;;;;8.69;100.00;101614.25;5098660;28;20297;-83
2023/04/29 05:57:37;;;;;;;36.77;18.80;;;;;;;8.73;100.00;101624.50;5082115;28;20036;-83
2023/04/29 06:00:03;;;;;;;34.85;18.75;;;;;;;8.75;100.00;101635.13;5117058;28;20030;-83
2023/04/29 06:02:28;;;;;;;36.15;18.40;;;;;;;8.80;100.00;101630.03;5082171;28;20028;-84
2023/04/29 06:04:54;;;;;;;34.23;19.13;;;;;;;8.81;100.00;101628.16;5082263;28;20038;-84
2023/04/29 06:07:20;;;;;;;35.70;18.38;;;;;;;8.82;100.00;101638.78;5116834;28;20052;-83
2023/04/29 06:09:45;;;;;;;33.67;18.27;;;;;;;8.86;100.00;101641.97;5098968;28;20113;-82
2023/04/29 06:12:12;;;;;;;37.97;18.10;;;;;;;8.88;100.00;101648.03;5098393;28;20035;-83
2023/04/29 06:14:37;;;;;;;32.13;17.98;;;;;;;8.85;100.00;101646.53;5098667;28;20285;-83
2023/04/29 06:17:02;;;;;;;34.20;17.35;;;;;;;8.86;100.00;101642.81;5081913;28;20031;-84
2023/04/29 06:19:28;;;;;;;37.60;19.23;;;;;;;8.83;100.00;101645.03;5080773;28;20059;-83
2023/04/29 06:21:54;;;;;;;36.27;18.10;;;;;;;8.83;100.00;101647.75;5098231;28;20463;-84
2023/04/29 06:24:19;;;;;;;32.97;17.65;;;;;;;8.83;100.00;101654.03;5097674;28;20027;-84
2023/04/29 06:26:44;;;;;;;35.85;17.80;;;;;;;8.86;100.00;101650.94;5064899;28;20038;-83
2023/04/29 06:29:10;;;;;;;32.67;17.90;;;;;;;8.89;100.00;101669.50;5116716;28;20031;-82
2023/04/29 06:31:35;;;;;;;33.53;18.10;;;;;;;8.89;100.00;101666.81;5098056;28;20028;-82
2023/04/29 06:34:01;;;;;;;33.27;17.83;;;;;;;8.90;100.00;101660.38;5081235;28;20031;-83
2023/04/29 06:36:27;;;;;;;34.85;17.60;;;;;;;8.93;100.00;101672.69;5081394;28;20301;-83
2023/04/29 06:38:52;;;;;;;30.43;17.30;;;;;;;8.96;100.00;101675.00;5081279;28;20043;-83
2023/04/29 06:41:18;;;;;;;36.72;17.45;;;;;;;8.97;100.00;101676.69;5098124;28;20031;-83
2023/04/29 06:43:43;;;;;;;30.03;17.27;;;;;;;9.09;100.00;101679.81;5098043;28;20471;-83
2023/04/29 06:46:09;;;;;;;29.13;17.37;;;;;;;9.19;100.00;101684.94;5098335;28;20070;-83
2023/04/29 06:48:35;;;;;;;31.20;17.23;;;;;;;9.27;100.00;101683.00;5098590;28;20106;-83
2023/04/29 06:51:00;;;;;;;33.37;17.17;;;;;;;9.38;100.00;101692.50;5097939;28;20483;-82
2023/04/29 06:53:26;;;;;;;35.53;18.30;;;;;;;9.49;100.00;101693.91;5097994;28;20281;-83
2023/04/29 06:55:52;;;;;;;35.03;17.57;;;;;;;9.61;100.00;101696.97;5097912;28;20034;-83
2023/04/29 06:58:18;;;;;;;28.30;16.33;;;;;;;9.75;100.00;101704.25;5097952;28;20544;-82
2023/04/29 07:00:48;;;;;;;28.97;16.47;;;;;;;9.79;100.00;101707.44;5097894;28;20023;-81
2023/04/29 07:03:15;;;;;;;26.60;16.33;;;;;;;9.83;100.00;101708.72;5097872;28;20035;-81
2023/04/29 07:05:41;;;;;;;30.30;16.48;;;;;;;9.96;100.00;101710.78;5080540;28;20418;-82
2023/04/29 07:08:08;;;;;;;29.75;16.77;;;;;;;10.10;100.00;101717.22;5097674;28;20023;-81
2023/04/29 07:10:34;;;;;;;27.23;16.52;;;;;;;10.21;100.00;101719.41;5115896;28;20031;-81
2023/04/29 07:12:59;;;;;;;30.73;15.80;;;;;;;10.30;100.00;101717.41;5064130;28;20028;-81
2023/04/29 07:15:29;;;;;;;28.00;15.47;;;;;;;10.39;100.00;101723.59;5081109;28;20126;-81
2023/04/29 07:17:55;;;;;;;32.03;16.50;;;;;;;10.42;100.00;101731.34;5097231;28;20123;-81
2023/04/29 07:20:20;;;;;;;29.63;15.88;;;;;;;10.35;100.00;101723.97;5098312;28;20035;-81
2023/04/29 07:22:48;;;;;;;27.10;16.67;;;;;;;10.37;100.00;101722.94;5115380;28;20070;-81
2023/04/29 07:25:13;;;;;;;28.33;15.35;;;;;;;10.37;100.00;101731.09;5081662;28;20109;-81
2023/04/29 07:27:39;;;;;;;31.10;16.40;;;;;;;10.41;100.00;101729.66;5097405;28;20036;-81
2023/04/29 07:30:05;;;;;;;26.30;15.52;;;;;;;10.48;100.00;101741.41;5115147;28;20027;-81
2023/04/29 07:32:31;;;;;;;23.50;15.17;;;;;;;10.47;100.00;101737.88;5079990;28;20036;-81
2023/04/29 07:34:57;;;;;;;28.48;15.20;;;;;;;10.49;100.00;101738.50;5115310;28;20020;-81
2023/04/29 07:37:23;;;;;;;24.65;15.65;;;;;;;10.51;100.00;101743.75;5080277;28;20036;-81
2023/04/29 07:39:48;;;;;;;25.10;14.53;;;;;;;10.49;100.00;101746.66;5097094;28;20024;-81
2023/04/29 07:42:14;;;;;;;26.53;14.63;;;;;;;10.52;100.00;101751.69;5063455;28;20028;-81
2023/04/29 07:44:39;;;;;;;26.80;15.10;;;;;;;10.61;100.00;101751.56;5063189;28;20787;-81
2023/04/29 07:47:05;;;;;;;27.17;15.10;;;;;;;10.67;100.00;101748.94;5097301;28;20040;-81
2023/04/29 07:49:30;;;;;;;25.93;14.87;;;;;;;10.69;100.00;101749.56;5080017;28;20050;-81
2023/04/29 07:51:55;;;;;;;27.85;14.30;;;;;;;10.77;100.00;101754.03;5080398;28;20043;-81
2023/04/29 07:54:21;;;;;;;26.47;15.27;;;;;;;10.88;100.00;101752.69;5079611;28;20479;-81
2023/04/29 07:56:47;;;;;;;22.53;14.30;;;;;;;11.03;100.00;101752.59;5096781;28;20443;-81
2023/04/29 07:59:12;;;;;;;26.13;14.43;;;;;;;11.15;100.00;101758.31;5096604;28;20020;-81
2023/04/29 08:01:39;;;;;;;28.20;14.83;;;;;;;11.34;100.00;101760.34;5079960;28;20038;-81
2023/04/29 08:04:06;;;;;;;24.52;14.38;;;;;;;11.68;100.00;101758.69;5097325;28;20112;-81
2023/04/29 08:06:31;;;;;;;26.52;15.02;;;;;;;12.04;100.00;101760.34;5097346;28;20466;-81
2023/04/29 08:08:57;;;;;;;23.17;13.67;;;;;;;12.18;100.00;101760.38;5096318;28;20035;-81
2023/04/29 08:11:23;;;;;;;22.42;13.90;;;;;;;12.24;100.00;101756.88;5079451;28;20028;-81
2023/04/29 08:13:49;;;;;;;23.53;14.30;;;;;;;12.31;98.40;101773.22;5079645;28;20034;-81
2023/04/29 08:16:14;;;;;;;24.00;12.95;;;;;;;12.31;99.43;101774.03;5079758;28;20031;-81
2023/04/29 08:18:40;;;;;;;23.17;13.00;;;;;;;12.37;98.27;101773.25;5096226;28;20467;-80
2023/04/29 08:21:06;;;;;;;20.08;13.63;;;;;;;12.63;97.96;101771.63;5062892;28;20484;-81
2023/04/29 08:23:31;;;;;;;21.83;13.40;;;;;;;12.90;98.00;101777.09;5063589;28;20038;-81
2023/04/29 08:25:57;;;;;;;19.77;12.98;;;;;;;13.09;93.93;101773.53;5063242;28;20031;-81
2023/04/29 08:28:23;;;;;;;21.10;12.65;;;;;;;13.11;92.73;101773.31;5079376;28;20040;-81
2023/04/29 08:30:49;;;;;;;29.10;13.57;;;;;;;13.11;91.86;101773.31;5079277;28;20122;-81
2023/04/29 08:33:15;;;;;;;22.58;12.57;;;;;;;13.13;91.48;101774.78;5096084;28;20071;-81
2023/04/29 08:35:40;;;;;;;19.97;12.03;;;;;;;13.28;92.65;101780.03;5096266;28;20024;-81
2023/04/29 08:38:07;;;;;;;22.23;13.35;;;;;;;13.30;90.63;101777.94;5114016;28;20043;-81
2023/04/29 08:40:41;;;;;;;20.17;11.77;;;;;;;13.43;90.38;101789.91;5095917;28;20035;-81
2023/04/29 08:43:08;;;;;;;21.57;10.93;;;;;;;13.49;86.18;101784.47;5113793;28;20032;-81
2023/04/29 08:45:35;;;;;;;19.23;11.50;;;;;;;13.46;86.47;101782.16;5096052;28;20035;-81
2023/04/29 08:48:02;;;;;;;19.33;11.25;;;;;;;13.70;85.42;101790.72;5114110;28;20071;-81
2023/04/29 08:50:29;;;;;;;21.15;11.18;;;;;;;13.95;85.54;101782.66;5096249;28;20088;-81
2023/04/29 08:52:55;;;;;;;18.00;10.98;;;;;;;14.21;85.46;101786.34;5079211;28;20544;-81
2023/04/29 08:55:20;;;;;;;16.57;10.60;;;;;;;14.55;82.90;101784.28;5095795;28;20067;-81
2023/04/29 08:57:49;;;;;;;16.95;11.13;;;;;;;14.83;81.28;101781.16;5096047;28;20040;-81
2023/04/29 09:00:15;;;;;;;16.97;12.10;;;;;;;15.05;80.09;101787.09;5113991;28;20455;-81
2023/04/29 09:02:49;;;;;;;20.45;11.60;;;;;;;15.05;78.89;101789.00;5096332;28;20019;-81
2023/04/29 09:05:15;;;;;;;20.13;11.55;;;;;;;14.97;77.94;101784.66;5096178;28;20103;-81
2023/04/29 09:07:42;;;;;;;14.70;9.70;;;;;;;15.15;77.95;101796.72;5095773;28;20451;-81
2023/04/29 09:10:08;;;;;;;15.02;11.00;;;;;;;15.18;74.64;101794.38;5096096;28;20080;-81
2023/04/29 09:12:35;;;;;;;18.40;9.33;;;;;;;15.05;76.71;101797.22;5078824;28;20085;-81
2023/04/29 09:15:01;;;;;;;16.13;9.82;;;;;;;14.97;74.91;101800.19;5079734;28;20059;-81
2023/04/29 09:17:44;;;;;;;17.33;9.50;;;;;;;15.02;77.95;101801.22;5095622;28;20122;-81
2023/04/29 09:20:18;;;;;;;13.63;9.45;;;;;;;15.22;76.63;101800.22;5095526;28;20387;-82
2023/04/29 09:22:55;;;;;;;12.77;8.98;;;;;;;15.55;73.97;101796.34;5095577;28;20069;-81
2023/04/29 09:25:21;;;;;;;15.50;8.80;;;;;;;15.98;70.93;101800.16;5114396;28;20599;-81
2023/04/29 09:27:46;;;;;;;13.50;9.05;;;;;;;16.05;68.98;101796.25;5095601;28;20051;-82
2023/04/29 09:30:15;;;;;;;14.87;8.07;;;;;;;16.42;70.08;101798.13;5095575;28;20137;-81
2023/04/29 09:32:41;;;;;;;12.50;7.88;;;;;;;16.86;67.82;101795.16;5095317;28;20100;-81
2023/04/29 09:35:26;;;;;;;14.73;8.45;;;;;;;16.96;69.34;101793.56;5113599;28;20028;-82
2023/04/29 09:38:06;;;;;;;12.07;7.57;;;;;;;16.94;64.60;101803.09;5095488;28;20040;-81
2023/04/29 09:40:33;;;;;;;11.73;7.85;;;;;;;17.05;65.10;101804.16;5096285;28;20509;-81
2023/04/29 09:43:00;;;;;;;13.17;8.00;;;;;;;17.33;63.71;101801.59;5095128;28;20036;-82
2023/04/29 09:45:36;;;;;;;15.57;8.25;;;;;;;17.59;65.39;101802.19;5078680;28;20039;-82
2023/04/29 09:48:05;;;;;;;13.15;8.70;;;;;;;17.87;61.99;101809.66;5095364;28;20379;-82
2023/04/29 09:50:38;;;;;;;13.18;8.48;;;;;;;17.68;62.28;101810.88;5095376;28;20114;-82
2023/04/29 09:53:08;;;;;;;12.30;8.52;;;;;;;17.51;62.35;101811.63;5114284;28;20024;-82
2023/04/29 09:55:58;;;;;;;12.60;7.77;;;;;;;17.18;66.39;101813.03;5095178;28;20023;-82
2023/04/29 09:58:29;;;;;;;11.90;8.00;;;;;;;16.81;62.88;101818.59;5083335;28;20067;-81
2023/04/29 10:00:59;;;;;;;12.25;8.52;;;;;;;16.45;64.13;101823.13;5097608;28;20034;-81
2023/04/29 10:03:31;;;;;;;14.82;8.10;;;;;;;16.41;65.64;101826.56;5117641;28;20406;-81
2023/04/29 10:05:57;;;;;;;10.95;8.00;;;;;;;16.86;64.64;101826.16;5117119;28;20114;-82
2023/04/29 10:08:23;;;;;;;10.73;7.30;;;;;;;17.31;62.46;101827.59;5082389;28;20023;-81
2023/04/29 10:10:56;;;;;;;10.65;7.30;;;;;;;17.62;61.44;101836.53;5116824;28;20032;-83
2023/04/29 10:13:25;;;;;;;14.48;7.57;;;;;;;17.89;59.10;101831.38;5100242;28;20044;-82
2023/04/29 10:16:06;;;;;;;11.20;7.13;;;;;;;18.14;61.53;101841.28;5098744;28;20020;-81
2023/04/29 10:18:36;;;;;;;10.85;7.63;;;;;;;17.98;59.66;101837.38;5098263;28;20071;-82
2023/04/29 10:21:05;;;;;;;12.10;7.57;;;;;;;17.68;58.62;101839.16;5117158;28;20040;-82
2023/04/29 10:23:32;;;;;;;14.18;7.63;;;;;;;17.17;61.43;101840.69;5098496;28;20023;-82
2023/04/29 10:25:59;;;;;;;12.30;8.32;;;;;;;16.78;61.14;101832.78;5098521;28;20028;-82
2023/04/29 10:28:29;;;;;;;11.37;7.23;;;;;;;16.53;62.12;101832.91;5098670;28;20165;-82
2023/04/29 10:30:56;;;;;;;12.60;7.57;;;;;;;16.29;62.77;101837.47;5098420;28;20164;-82
2023/04/29 10:33:22;;;;;;;10.73;7.13;;;;;;;16.14;63.01;101830.47;5116698;28;20055;-82
2023/04/29 10:35:48;;;;;;;13.32;7.35;;;;;;;16.08;62.87;101838.78;5116263;28;20116;-82
2023/04/29 10:38:24;;;;;;;11.47;7.00;;;;;;;16.22;64.76;101842.16;5098401;28;20028;-82
2023/04/29 10:41:02;;;;;;;8.85;6.80;;;;;;;16.83;63.61;101840.31;5098687;28;20100;-82
2023/04/29 10:43:27;;;;;;;14.02;7.15;;;;;;;17.42;58.98;101840.47;5116702;28;20039;-83
2023/04/29 10:46:15;;;;;;;11.07;7.37;;;;;;;18.08;60.36;101837.59;5098970;28;20039;-83
2023/04/29 10:48:42;;;;;;;10.88;7.40;;;;;;;18.56;57.06;101838.31;5097870;28;20114;-82
2023/04/29 10:51:07;;;;;;;10.77;7.20;;;;;;;18.60;55.50;101831.22;5098801;28;20463;-82
2023/04/29 10:53:34;;;;;;;10.40;6.53;;;;;;;18.50;55.82;101844.75;5098676;28;20119;-83
2023/04/29 10:56:06;;;;;;;10.32;6.93;;;;;;;18.01;57.20;101837.75;5080825;28;20028;-83
2023/04/29 10:58:38;;;;;;;12.88;7.38;;;;;;;17.95;57.20;101838.72;5097781;28;20032;-82
2023/04/29 11:01:04;;;;;;;12.17;6.67;;;;;;;17.90;56.94;101844.06;5097867;28;20080;-82
2023/04/29 11:04:03;;;;;;;9.63;6.80;;;;;;;18.27;58.33;101846.50;5116016;28;20100;-82
2023/04/29 11:06:34;;;;;;;10.25;6.38;;;;;;;18.56;55.27;101850.13;5097999;28;20066;-82
2023/04/29 11:09:07;;;;;;;9.55;6.20;;;;;;;18.69;52.09;101842.66;5115955;28;20028;-82